Time;durP1;ratioP1;P1;durP2;ratioP2;P2;SDS_P1;SDS_P2;PMS_P1;PMS_P2;Temp;Humidity;BMP_temperature;BMP_pressure;BME280_temperature;BME280_humidity;BME280_pressure;Samples;Min_cycle;Max_cycle;Signal;HPM_P1;HPM_P2
2021/08/09 00:00:47;;;;;;;;;2.67;2.67;;;;;;;;3543270;39;113868;-79
2021/08/09 00:03:14;;;;;;;;;2.00;2.00;;;;;;;;3543418;39;111772;-80
2021/08/09 00:05:41;;;;;;;;;3.00;2.33;;;;;;;;3543801;39;113602;-80
2021/08/09 00:08:08;;;;;;;;;2.00;2.00;;;;;;;;3543172;39;114296;-80
2021/08/09 00:10:35;;;;;;;;;2.00;2.00;;;;;;;;3546205;39;112008;-78
2021/08/09 00:13:03;;;;;;;;;2.00;2.00;;;;;;;;3543480;39;114169;-78
2021/08/09 00:15:29;;;;;;;;;2.00;2.00;;;;;;;;3543936;39;112890;-78
2021/08/09 00:17:56;;;;;;;;;1.33;1.00;;;;;;;;3543852;39;113230;-79
2021/08/09 00:20:23;;;;;;;;;4.00;4.00;;;;;;;;3542624;39;114446;-77
2021/08/09 00:22:49;;;;;;;;;2.00;1.67;;;;;;;;3542540;39;113348;-79
2021/08/09 00:25:16;;;;;;;;;3.00;1.33;;;;;;;;3543549;39;113272;-79
2021/08/09 00:27:43;;;;;;;;;3.00;3.00;;;;;;;;3543284;39;113874;-80
2021/08/09 00:30:12;;;;;;;;;2.00;2.00;;;;;;;;3546307;39;111971;-80
2021/08/09 00:32:38;;;;;;;;;3.00;1.67;;;;;;;;3543064;39;113654;-78
2021/08/09 00:35:05;;;;;;;;;3.00;2.00;;;;;;;;3543555;39;112242;-79
2021/08/09 00:37:32;;;;;;;;;2.00;1.00;;;;;;;;3543714;39;113739;-78
2021/08/09 00:39:58;;;;;;;;;2.00;2.00;;;;;;;;3543136;39;114278;-78
2021/08/09 00:42:25;;;;;;;;;1.00;1.00;;;;;;;;3543555;39;111936;-79
2021/08/09 00:44:51;;;;;;;;;4.00;2.33;;;;;;;;3543378;39;113355;-78
2021/08/09 00:47:19;;;;;;;;;1.00;1.00;;;;;;;;3542765;39;114031;-78
2021/08/09 00:49:46;;;;;;;;;1.00;1.00;;;;;;;;3543509;39;112033;-77
2021/08/09 00:52:12;;;;;;;;;3.33;1.00;;;;;;;;3543247;39;113827;-78
2021/08/09 00:54:39;;;;;;;;;2.67;2.67;;;;;;;;3543526;39;112151;-78
2021/08/09 00:57:06;;;;;;;;;2.00;2.00;;;;;;;;3543042;39;113260;-77
2021/08/09 00:59:32;;;;;;;;;3.33;2.00;;;;;;;;3544136;39;114002;-77
2021/08/09 01:01:59;;;;;;;;;2.00;2.00;;;;;;;;3544583;39;112331;-78
2021/08/09 01:04:27;;;;;;;;;1.75;1.00;;;;;;;;3544713;39;113339;-77
2021/08/09 01:06:54;;;;;;;;;2.75;2.00;;;;;;;;3544138;39;113893;-78
2021/08/09 01:09:23;;;;;;;;;1.00;1.00;;;;;;;;3544666;39;111953;-79
2021/08/09 01:11:54;;;;;;;;;3.00;2.00;;;;;;;;3544705;39;113930;-79
2021/08/09 01:14:28;;;;;;;;;2.00;1.00;;;;;;;;3546767;39;113479;-78
2021/08/09 01:16:56;;;;;;;;;2.00;2.00;;;;;;;;3544608;39;113198;-78
2021/08/09 01:19:31;;;;;;;;;2.00;1.33;;;;;;;;3544357;39;113970;-78
2021/08/09 01:22:02;;;;;;;;;2.00;2.00;;;;;;;;3544500;39;112501;-78
2021/08/09 01:24:33;;;;;;;;;2.00;2.00;;;;;;;;3544601;39;113178;-78
2021/08/09 01:27:03;;;;;;;;;1.50;1.50;;;;;;;;3543797;39;113953;-78
2021/08/09 01:29:35;;;;;;;;;4.75;2.50;;;;;;;;3544679;39;112760;-78
2021/08/09 01:32:02;;;;;;;;;1.00;1.00;;;;;;;;3544537;39;113749;-80
2021/08/09 01:34:29;;;;;;;;;1.75;1.00;;;;;;;;3544119;39;113953;-78
2021/08/09 01:36:57;;;;;;;;;2.25;2.00;;;;;;;;3547156;39;111860;-78
2021/08/09 01:39:24;;;;;;;;;2.00;2.00;;;;;;;;3544204;39;113791;-78
2021/08/09 01:41:52;;;;;;;;;2.00;2.00;;;;;;;;3544468;39;112418;-79
2021/08/09 01:44:19;;;;;;;;;1.00;1.00;;;;;;;;3544558;39;114553;-78
2021/08/09 01:46:47;;;;;;;;;2.00;2.00;;;;;;;;3544085;39;113914;-78
2021/08/09 01:49:14;;;;;;;;;2.00;1.25;;;;;;;;3544416;39;112423;-78
2021/08/09 01:51:41;;;;;;;;;2.00;1.75;;;;;;;;3544756;39;113688;-78
2021/08/09 01:54:08;;;;;;;;;3.25;3.25;;;;;;;;3543886;39;114311;-79
2021/08/09 01:56:35;;;;;;;;;2.00;2.00;;;;;;;;3544602;39;112020;-78
2021/08/09 01:59:02;;;;;;;;;1.25;1.25;;;;;;;;3546614;39;113530;-78
2021/08/09 02:01:28;;;;;;;;;3.00;2.00;;;;;;;;3544546;39;112421;-78
2021/08/09 02:03:56;;;;;;;;;2.00;2.00;;;;;;;;3544323;39;113303;-79
2021/08/09 02:06:23;;;;;;;;;3.00;3.00;;;;;;;;3543965;39;113759;-78
2021/08/09 02:08:50;;;;;;;;;2.25;2.25;;;;;;;;3544396;39;111787;-78
2021/08/09 02:11:17;;;;;;;;;4.00;3.00;;;;;;;;3544448;39;113356;-78
2021/08/09 02:13:46;;;;;;;;;2.75;2.75;;;;;;;;3544030;39;113968;-78
2021/08/09 02:16:16;;;;;;;;;2.00;2.00;;;;;;;;3544404;39;111842;-78
2021/08/09 02:18:46;;;;;;;;;2.75;2.75;;;;;;;;3544585;39;113348;-78
2021/08/09 02:21:15;;;;;;;;;3.00;3.00;;;;;;;;3546748;39;113932;-79
2021/08/09 02:23:44;;;;;;;;;2.00;2.00;;;;;;;;3544758;39;113570;-80
2021/08/09 02:26:11;;;;;;;;;3.25;2.00;;;;;;;;3544144;39;114191;-78
2021/08/09 02:28:42;;;;;;;;;5.00;3.25;;;;;;;;3542511;39;111883;-78
2021/08/09 02:31:10;;;;;;;;;4.25;2.00;;;;;;;;3542250;39;113512;-78
2021/08/09 02:33:37;;;;;;;;;1.00;1.00;;;;;;;;3541955;39;114087;-79
2021/08/09 02:36:04;;;;;;;;;2.25;2.25;;;;;;;;3544348;39;113087;-79
2021/08/09 02:38:33;;;;;;;;;2.00;2.00;;;;;;;;3544420;39;113431;-79
2021/08/09 02:41:01;;;;;;;;;3.75;3.75;;;;;;;;3546546;39;114798;-78
2021/08/09 02:43:29;;;;;;;;;4.00;4.00;;;;;;;;3544484;39;113543;-78
2021/08/09 02:45:57;;;;;;;;;4.00;4.00;;;;;;;;3543862;39;113841;-78
2021/08/09 02:48:24;;;;;;;;;5.25;4.00;;;;;;;;3544309;39;111987;-78
2021/08/09 02:50:54;;;;;;;;;6.75;5.00;;;;;;;;3544240;39;113364;-78
2021/08/09 02:53:24;;;;;;;;;4.75;3.25;;;;;;;;3543836;39;113790;-78
2021/08/09 02:55:54;;;;;;;;;4.25;3.00;;;;;;;;3544261;39;111828;-78
2021/08/09 02:58:21;;;;;;;;;6.00;5.00;;;;;;;;3544177;39;113612;-78
2021/08/09 03:00:48;;;;;;;;;5.00;5.00;;;;;;;;3543837;39;114399;-78
2021/08/09 03:03:15;;;;;;;;;5.75;4.00;;;;;;;;3546611;39;112274;-77
2021/08/09 03:05:42;;;;;;;;;3.50;3.50;;;;;;;;3543790;39;114358;-78
2021/08/09 03:08:11;;;;;;;;;5.25;4.75;;;;;;;;3542173;39;111879;-78
2021/08/09 03:10:38;;;;;;;;;6.00;5.25;;;;;;;;3544211;39;114198;-78
2021/08/09 03:13:08;;;;;;;;;5.00;5.00;;;;;;;;3543520;39;114372;-78
2021/08/09 03:15:36;;;;;;;;;6.00;5.00;;;;;;;;3544475;39;113483;-77
2021/08/09 03:18:03;;;;;;;;;5.25;4.25;;;;;;;;3543935;39;113744;-78
2021/08/09 03:20:29;;;;;;;;;4.75;4.75;;;;;;;;3543146;39;113901;-78
2021/08/09 03:22:56;;;;;;;;;4.75;4.75;;;;;;;;3544066;39;112077;-78
2021/08/09 03:25:23;;;;;;;;;4.75;4.75;;;;;;;;3546377;39;113931;-78
2021/08/09 03:27:49;;;;;;;;;5.75;5.00;;;;;;;;3544303;39;111816;-79
2021/08/09 03:30:17;;;;;;;;;5.00;5.00;;;;;;;;3544280;39;113247;-79
2021/08/09 03:32:44;;;;;;;;;3.75;3.75;;;;;;;;3543624;39;113874;-79
2021/08/09 03:35:10;;;;;;;;;7.00;5.00;;;;;;;;3543875;39;111788;-78
2021/08/09 03:37:37;;;;;;;;;5.75;5.00;;;;;;;;3544073;39;113632;-78
2021/08/09 03:40:04;;;;;;;;;5.75;4.00;;;;;;;;3543361;39;114842;-78
2021/08/09 03:42:31;;;;;;;;;4.00;3.50;;;;;;;;3544028;39;111812;-78
2021/08/09 03:44:57;;;;;;;;;5.00;4.25;;;;;;;;3543876;39;113258;-79
2021/08/09 03:47:25;;;;;;;;;3.75;3.75;;;;;;;;3546127;39;113899;-79
2021/08/09 03:49:52;;;;;;;;;5.00;5.00;;;;;;;;3544168;39;113291;-79
2021/08/09 03:52:18;;;;;;;;;6.75;5.00;;;;;;;;3543416;39;113650;-79
2021/08/09 03:54:45;;;;;;;;;5.00;4.00;;;;;;;;3543867;39;112209;-80
2021/08/09 03:57:11;;;;;;;;;5.00;4.25;;;;;;;;3543963;39;113347;-80
2021/08/09 03:59:38;;;;;;;;;5.25;4.25;;;;;;;;3541377;39;114597;-79
2021/08/09 04:02:05;;;;;;;;;5.25;5.25;;;;;;;;3543888;39;112141;-80
2021/08/09 04:04:33;;;;;;;;;7.00;4.75;;;;;;;;3543940;39;112638;-79
2021/08/09 04:07:00;;;;;;;;;4.00;4.00;;;;;;;;3543421;39;113748;-79
2021/08/09 04:09:26;;;;;;;;;4.00;4.00;;;;;;;;3546529;39;112050;-79
2021/08/09 04:11:53;;;;;;;;;3.25;3.25;;;;;;;;3543636;39;114685;-79
2021/08/09 04:14:19;;;;;;;;;4.00;4.00;;;;;;;;3544119;39;111990;-80
2021/08/09 04:16:46;;;;;;;;;3.50;3.50;;;;;;;;3544219;39;113772;-79
2021/08/09 04:19:12;;;;;;;;;4.00;4.00;;;;;;;;3543914;39;114940;-79
2021/08/09 04:21:40;;;;;;;;;4.25;4.25;;;;;;;;3544493;39;111823;-79
2021/08/09 04:24:07;;;;;;;;;6.50;5.00;;;;;;;;3544047;39;113280;-79
2021/08/09 04:26:34;;;;;;;;;3.50;3.00;;;;;;;;3543869;39;113890;-80
2021/08/09 04:29:00;;;;;;;;;4.00;4.00;;;;;;;;3544136;39;111835;-79
2021/08/09 04:31:27;;;;;;;;;4.00;4.00;;;;;;;;3546055;39;114062;-80
2021/08/09 04:33:54;;;;;;;;;6.00;5.00;;;;;;;;3544625;39;112042;-80
2021/08/09 04:36:20;;;;;;;;;3.25;3.25;;;;;;;;3545269;39;113084;-79
2021/08/09 04:38:49;;;;;;;;;3.00;3.00;;;;;;;;3544647;39;113690;-79
2021/08/09 04:41:16;;;;;;;;;4.50;4.00;;;;;;;;3544915;39;111856;-79
2021/08/09 04:43:42;;;;;;;;;4.00;4.00;;;;;;;;3544929;39;113439;-79
2021/08/09 04:46:09;;;;;;;;;5.00;3.50;;;;;;;;3544735;39;114023;-80
2021/08/09 04:48:36;;;;;;;;;4.50;4.50;;;;;;;;3545039;39;112099;-79
2021/08/09 04:51:02;;;;;;;;;5.75;4.00;;;;;;;;3546824;39;113738;-79
2021/08/09 04:53:29;;;;;;;;;5.25;5.00;;;;;;;;3544994;39;112757;-79
2021/08/09 04:55:57;;;;;;;;;5.25;3.50;;;;;;;;3544772;39;113270;-79
2021/08/09 04:58:23;;;;;;;;;6.75;4.75;;;;;;;;3544609;39;113802;-79
2021/08/09 05:00:51;;;;;;;;;6.25;5.00;;;;;;;;3545044;39;111850;-79
2021/08/09 05:03:17;;;;;;;;;5.00;3.25;;;;;;;;3544827;39;113198;-79
2021/08/09 05:05:44;;;;;;;;;6.00;4.25;;;;;;;;3544366;39;113842;-79
2021/08/09 05:08:11;;;;;;;;;4.00;4.00;;;;;;;;3544751;39;111818;-79
2021/08/09 05:10:38;;;;;;;;;4.75;4.00;;;;;;;;3544748;39;113557;-80
2021/08/09 05:13:06;;;;;;;;;3.00;3.00;;;;;;;;3546661;39;114196;-82
2021/08/09 05:15:35;;;;;;;;;3.25;3.25;;;;;;;;3544398;39;113684;-82
2021/08/09 05:18:01;;;;;;;;;4.00;4.00;;;;;;;;3543712;39;113860;-79
2021/08/09 05:20:29;;;;;;;;;6.50;4.50;;;;;;;;3544513;39;112923;-80
2021/08/09 05:22:56;;;;;;;;;4.00;4.00;;;;;;;;3544823;39;113239;-77
2021/08/09 05:25:23;;;;;;;;;4.75;3.00;;;;;;;;3543759;39;113974;-79
2021/08/09 05:27:49;;;;;;;;;5.00;3.00;;;;;;;;3543462;39;111878;-77
2021/08/09 05:30:17;;;;;;;;;4.25;3.25;;;;;;;;3544464;39;113286;-80
2021/08/09 05:32:44;;;;;;;;;3.25;3.25;;;;;;;;3543702;39;114482;-80
2021/08/09 05:35:11;;;;;;;;;5.00;3.75;;;;;;;;3547164;39;111949;-79
2021/08/09 05:37:37;;;;;;;;;3.00;3.00;;;;;;;;3543746;39;114119;-80
2021/08/09 05:40:05;;;;;;;;;7.00;3.75;;;;;;;;3544281;39;111969;-80
2021/08/09 05:42:31;;;;;;;;;5.50;4.25;;;;;;;;3544058;39;113675;-79
2021/08/09 05:44:58;;;;;;;;;5.00;4.50;;;;;;;;3543662;39;113890;-79
2021/08/09 05:47:26;;;;;;;;;2.75;2.75;;;;;;;;3544178;39;111942;-78
2021/08/09 05:49:53;;;;;;;;;3.00;3.00;;;;;;;;3544549;39;113399;-78
2021/08/09 05:52:20;;;;;;;;;3.75;3.00;;;;;;;;3543511;39;113972;-79
2021/08/09 05:54:47;;;;;;;;;3.00;3.00;;;;;;;;3544419;39;111813;-77
2021/08/09 05:57:14;;;;;;;;;3.25;3.00;;;;;;;;3546718;39;113501;-77
2021/08/09 05:59:40;;;;;;;;;4.00;3.00;;;;;;;;3543813;39;112978;-77
2021/08/09 06:02:07;;;;;;;;;6.25;5.50;;;;;;;;3544380;39;113470;-77
2021/08/09 06:04:35;;;;;;;;;3.75;3.75;;;;;;;;3543545;39;113839;-77
2021/08/09 06:07:01;;;;;;;;;7.00;3.50;;;;;;;;3543824;39;112201;-78
2021/08/09 06:09:28;;;;;;;;;3.00;3.00;;;;;;;;3544000;39;113905;-77
2021/08/09 06:11:55;;;;;;;;;5.75;4.75;;;;;;;;3543681;39;113927;-78
2021/08/09 06:14:21;;;;;;;;;5.00;3.25;;;;;;;;3543660;39;111817;-77
2021/08/09 06:16:51;;;;;;;;;2.25;2.25;;;;;;;;3544033;39;113442;-77
2021/08/09 06:19:18;;;;;;;;;2.75;2.75;;;;;;;;3546013;39;114254;-78
2021/08/09 06:21:46;;;;;;;;;5.00;3.75;;;;;;;;3542571;39;113249;-79
2021/08/09 06:24:12;;;;;;;;;4.50;4.50;;;;;;;;3543529;39;113945;-80
2021/08/09 06:26:39;;;;;;;;;5.00;4.50;;;;;;;;3543834;39;112283;-80
2021/08/09 06:29:05;;;;;;;;;4.00;4.00;;;;;;;;3544048;39;113279;-81
2021/08/09 06:31:32;;;;;;;;;3.25;3.25;;;;;;;;3543394;39;113946;-79
2021/08/09 06:33:59;;;;;;;;;3.00;3.00;;;;;;;;3544057;39;111953;-78
2021/08/09 06:36:25;;;;;;;;;4.50;3.00;;;;;;;;3544244;39;113308;-79
2021/08/09 06:38:56;;;;;;;;;3.00;3.00;;;;;;;;3543843;39;113932;-80
2021/08/09 06:41:24;;;;;;;;;2.00;2.00;;;;;;;;3546709;39;112532;-79
2021/08/09 06:43:50;;;;;;;;;4.75;4.00;;;;;;;;3543692;39;114797;-80
2021/08/09 06:46:17;;;;;;;;;4.00;3.00;;;;;;;;3544085;39;111842;-80
2021/08/09 06:48:47;;;;;;;;;3.25;3.25;;;;;;;;3543474;39;113262;-80
2021/08/09 06:51:14;;;;;;;;;5.00;4.00;;;;;;;;3543373;39;114045;-76
2021/08/09 06:53:41;;;;;;;;;3.75;3.75;;;;;;;;3542251;39;112309;-83
2021/08/09 06:56:14;;;;;;;;;5.25;5.00;;;;;;;;3542098;39;113747;-84
2021/08/09 06:58:44;;;;;;;;;5.00;4.00;;;;;;;;3542473;39;114308;-83
2021/08/09 07:01:10;;;;;;;;;4.50;4.00;;;;;;;;3545276;39;112094;-83
2021/08/09 07:03:37;;;;;;;;;4.00;3.50;;;;;;;;3543302;39;114458;-83
2021/08/09 07:06:04;;;;;;;;;6.50;4.00;;;;;;;;3544320;39;112223;-82
2021/08/09 07:08:30;;;;;;;;;0.25;0.25;;;;;;;;3544019;39;112871;-80
2021/08/09 07:10:57;;;;;;;;;5.50;4.00;;;;;;;;3543414;39;114121;-78
2021/08/09 07:13:25;;;;;;;;;5.00;5.00;;;;;;;;3543898;39;112073;-79
2021/08/09 07:15:51;;;;;;;;;4.00;4.00;;;;;;;;3543238;39;113699;-81
2021/08/09 07:18:18;;;;;;;;;5.00;4.25;;;;;;;;3542822;39;114365;-82
2021/08/09 07:20:45;;;;;;;;;5.25;4.00;;;;;;;;3543381;39;111917;-84
2021/08/09 07:23:15;;;;;;;;;4.00;4.00;;;;;;;;3546149;39;113276;-81
2021/08/09 07:25:42;;;;;;;;;6.00;6.00;;;;;;;;3543448;39;111926;-81
2021/08/09 07:28:08;;;;;;;;;3.75;3.75;;;;;;;;3543651;39;114211;-84
2021/08/09 07:30:36;;;;;;;;;4.25;4.25;;;;;;;;3541750;39;113949;-84
2021/08/09 07:33:03;;;;;;;;;3.00;3.00;;;;;;;;3543419;39;112463;-79
2021/08/09 07:35:29;;;;;;;;;5.50;3.00;;;;;;;;3543804;39;113313;-79
2021/08/09 07:37:56;;;;;;;;;5.00;5.00;;;;;;;;3543632;39;114293;-79
2021/08/09 07:40:24;;;;;;;;;3.00;3.00;;;;;;;;3542931;39;111979;-77
2021/08/09 07:42:50;;;;;;;;;4.33;4.00;;;;;;;;3543864;39;113288;-78
2021/08/09 07:45:17;;;;;;;;;4.00;4.00;;;;;;;;3545935;39;114238;-78
2021/08/09 07:47:51;;;;;;;;;2.00;1.33;;;;;;;;3544218;39;113268;-88
2021/08/09 07:50:18;;;;;;;;;2.00;2.00;;;;;;;;3543536;39;113867;-88
2021/08/09 07:52:44;;;;;;;;;2.00;2.00;;;;;;;;3543911;39;111977;-86
2021/08/09 07:55:12;;;;;;;;;3.00;2.00;;;;;;;;3544066;39;114071;-87
2021/08/09 07:57:39;;;;;;;;;1.67;1.00;;;;;;;;3542325;39;113019;-87
2021/08/09 08:00:06;;;;;;;;;2.00;2.00;;;;;;;;3540658;39;112109;-88
2021/08/09 08:02:33;;;;;;;;;3.00;1.00;;;;;;;;3542357;39;113190;-86
2021/08/09 08:05:01;;;;;;;;;4.67;2.00;;;;;;;;3542613;39;113907;-88
2021/08/09 08:07:28;;;;;;;;;4.33;2.67;;;;;;;;3544759;39;111790;-88
2021/08/09 08:09:55;;;;;;;;;3.33;1.67;;;;;;;;3542487;39;113318;-88
2021/08/09 08:12:21;;;;;;;;;3.33;2.00;;;;;;;;3543975;39;112380;-90
2021/08/09 08:14:48;;;;;;;;;2.00;2.00;;;;;;;;3543654;39;113604;-72
2021/08/09 08:17:15;;;;;;;;;2.00;2.00;;;;;;;;3542869;39;113987;-73
2021/08/09 08:19:41;;;;;;;;;4.00;4.00;;;;;;;;3543230;39;112164;-76
2021/08/09 08:22:09;;;;;;;;;7.00;4.67;;;;;;;;3543466;39;113298;-74
2021/08/09 08:24:36;;;;;;;;;4.00;4.00;;;;;;;;3541158;39;113902;-73
2021/08/09 08:27:03;;;;;;;;;4.33;4.00;;;;;;;;3543066;39;111957;-73
2021/08/09 08:29:29;;;;;;;;;3.67;3.67;;;;;;;;3545597;39;113300;-73
2021/08/09 08:31:56;;;;;;;;;4.33;4.00;;;;;;;;3543385;39;111883;-80
2021/08/09 08:34:22;;;;;;;;;2.00;2.00;;;;;;;;3543171;39;113615;-83
2021/08/09 08:36:49;;;;;;;;;1.50;1.00;;;;;;;;3542915;39;114212;-80
2021/08/09 08:39:17;;;;;;;;;1.25;1.25;;;;;;;;3543221;39;112131;-80
2021/08/09 08:41:44;;;;;;;;;1.00;1.00;;;;;;;;3543190;39;113612;-79
2021/08/09 08:44:10;;;;;;;;;5.50;1.25;;;;;;;;3542130;39;113886;-79
2021/08/09 08:46:38;;;;;;;;;1.00;1.00;;;;;;;;3541927;39;112904;-80
2021/08/09 08:49:05;;;;;;;;;2.00;2.00;;;;;;;;3541590;39;113675;-80
2021/08/09 08:51:32;;;;;;;;;0.75;0.25;;;;;;;;3544885;39;112071;-80
2021/08/09 08:53:59;;;;;;;;;2.00;1.25;;;;;;;;3542281;39;112496;-86
2021/08/09 08:56:28;;;;;;;;;0.25;0.25;;;;;;;;3542243;39;114244;-87
2021/08/09 08:58:54;;;;;;;;;0.00;0.00;;;;;;;;3541540;39;112496;-86
2021/08/09 09:01:34;;;;;;;;;0.25;0.25;;;;;;;;3520510;39;113469;-81
2021/08/09 09:04:00;;;;;;;;;0.25;0.00;;;;;;;;3536681;39;114495;-80
2021/08/09 09:06:27;;;;;;;;;0.00;0.00;;;;;;;;3542580;39;112142;-79
2021/08/09 09:08:53;;;;;;;;;0.25;0.00;;;;;;;;3542297;39;113928;-81
2021/08/09 09:11:37;;;;;;;;;0.25;0.00;;;;;;;;3544322;39;114339;-79
2021/08/09 09:14:04;;;;;;;;;0.00;0.00;;;;;;;;3542580;39;113522;-81
2021/08/09 09:16:42;;;;;;;;;0.00;0.00;;;;;;;;3541764;39;113854;-81
2021/08/09 09:19:09;;;;;;;;;2.00;2.00;;;;;;;;3508810;39;112060;-81
2021/08/09 09:21:37;;;;;;;;;2.00;2.00;;;;;;;;3541574;39;113434;-81
2021/08/09 09:24:07;;;;;;;;;3.00;2.00;;;;;;;;3542996;39;114518;-81
2021/08/09 09:26:36;;;;;;;;;1.00;1.00;;;;;;;;3543462;39;111905;-80
2021/08/09 09:29:06;;;;;;;;;2.75;2.00;;;;;;;;3544368;39;113342;-81
2021/08/09 09:31:33;;;;;;;;;1.25;1.25;;;;;;;;3544366;39;113811;-81
2021/08/09 09:34:02;;;;;;;;;0.75;0.75;;;;;;;;3546621;39;111885;-82
2021/08/09 09:36:30;;;;;;;;;2.75;2.75;;;;;;;;3544817;39;114078;-79
2021/08/09 09:38:57;;;;;;;;;3.00;3.00;;;;;;;;3544848;39;111953;-81
2021/08/09 09:41:23;;;;;;;;;2.25;2.25;;;;;;;;3545144;39;113272;-80
2021/08/09 09:43:51;;;;;;;;;3.00;2.00;;;;;;;;3544902;39;113844;-80
2021/08/09 09:46:22;;;;;;;;;3.00;2.00;;;;;;;;3543135;39;112200;-79
2021/08/09 09:48:48;;;;;;;;;2.00;1.75;;;;;;;;3544251;39;113190;-79
2021/08/09 09:51:17;;;;;;;;;2.00;2.00;;;;;;;;3543083;39;113898;-82
2021/08/09 09:53:44;;;;;;;;;1.00;1.00;;;;;;;;3543790;39;112008;-80
2021/08/09 09:56:11;;;;;;;;;3.25;2.00;;;;;;;;3544079;39;113369;-81
2021/08/09 09:58:38;;;;;;;;;2.00;2.00;;;;;;;;3541893;39;112584;-80
2021/08/09 10:01:07;;;;;;;;;8.00;7.00;;;;;;;;3543255;39;113252;-82
2021/08/09 10:03:33;;;;;;;;;5.50;5.50;;;;;;;;3543590;39;113203;-77
2021/08/09 10:06:01;;;;;;;;;4.50;4.50;;;;;;;;3542937;39;112098;-75
2021/08/09 10:08:29;;;;;;;;;6.75;5.00;;;;;;;;3544215;39;113105;-76
2021/08/09 10:10:57;;;;;;;;;6.25;5.50;;;;;;;;3543371;39;115143;-77
2021/08/09 10:13:24;;;;;;;;;5.75;5.75;;;;;;;;3542834;39;112166;-76
2021/08/09 10:15:52;;;;;;;;;5.25;5.25;;;;;;;;3543675;39;113951;-76
2021/08/09 10:18:23;;;;;;;;;4.00;2.75;;;;;;;;3545367;39;114208;-77
2021/08/09 10:20:54;;;;;;;;;3.75;3.00;;;;;;;;3543757;39;113916;-76
2021/08/09 10:23:36;;;;;;;;;5.75;4.00;;;;;;;;3543362;39;113939;-75
2021/08/09 10:26:02;;;;;;;;;4.00;4.00;;;;;;;;3540114;39;112231;-75
2021/08/09 10:29:00;;;;;;;;;7.00;7.00;;;;;;;;3542788;39;113493;-75
2021/08/09 10:31:28;;;;;;;;;8.00;6.33;;;;;;;;3539969;39;113999;-75
2021/08/09 10:33:56;;;;;;;;;6.00;6.00;;;;;;;;3543106;39;111937;-75
2021/08/09 10:36:23;;;;;;;;;2.00;2.00;;;;;;;;3543209;39;113976;-74
2021/08/09 10:38:50;;;;;;;;;7.33;7.33;;;;;;;;3542766;39;113903;-76
2021/08/09 10:41:34;;;;;;;;;9.33;7.67;;;;;;;;3544709;39;111890;-77
2021/08/09 10:44:19;;;;;;;;;2.00;2.00;;;;;;;;3541786;39;115123;-78
2021/08/09 10:46:46;;;;;;;;;4.00;4.00;;;;;;;;3541186;39;113322;-78
2021/08/09 10:49:35;;;;;;;;;5.67;5.67;;;;;;;;3541966;39;112745;-80
2021/08/09 10:52:06;;;;;;;;;7.33;6.00;;;;;;;;3542465;39;113336;-87
2021/08/09 10:54:35;;;;;;;;;9.33;8.67;;;;;;;;3539884;39;112101;-85
2021/08/09 10:57:01;;;;;;;;;4.33;4.00;;;;;;;;3543473;39;113110;-87
2021/08/09 10:59:45;;;;;;;;;6.00;6.00;;;;;;;;3546305;39;114557;-84
2021/08/09 11:02:21;;;;;;;;;5.00;4.00;;;;;;;;3552501;39;111983;-88
2021/08/09 11:05:07;;;;;;;;;8.33;8.33;;;;;;;;3548246;39;113337;-82
2021/08/09 11:07:44;;;;;;;;;7.00;6.00;;;;;;;;3544155;39;112155;-80
2021/08/09 11:10:13;;;;;;;;;6.00;6.00;;;;;;;;3541148;39;113159;-83
2021/08/09 11:13:09;;;;;;;;;11.00;11.00;;;;;;;;3542909;39;113326;-83
2021/08/09 11:15:53;;;;;;;;;12.00;12.00;;;;;;;;3539830;39;112866;-77
2021/08/09 11:18:20;;;;;;;;;5.33;5.00;;;;;;;;3542944;39;113226;-79
2021/08/09 11:20:46;;;;;;;;;8.67;6.00;;;;;;;;3542796;39;113922;-80
2021/08/09 11:23:15;;;;;;;;;13.00;13.00;;;;;;;;3543070;39;111930;-78
2021/08/09 11:25:43;;;;;;;;;13.33;11.00;;;;;;;;3545205;39;113716;-78
2021/08/09 11:28:12;;;;;;;;;7.33;7.33;;;;;;;;3541685;39;111925;-80
2021/08/09 11:30:40;;;;;;;;;12.00;11.33;;;;;;;;3541084;39;113287;-79
2021/08/09 11:33:08;;;;;;;;;3.00;3.00;;;;;;;;3541556;39;114480;-79
2021/08/09 11:35:43;;;;;;;;;4.00;4.00;;;;;;;;3541650;39;112928;-78
2021/08/09 11:38:11;;;;;;;;;7.00;7.00;;;;;;;;3542535;39;113603;-80
2021/08/09 11:40:40;;;;;;;;;3.00;3.00;;;;;;;;3542290;39;114361;-78
2021/08/09 11:43:07;;;;;;;;;7.00;6.67;;;;;;;;3541842;39;112151;-77
2021/08/09 11:45:34;;;;;;;;;6.00;6.00;;;;;;;;3542517;39;113795;-78
2021/08/09 11:48:00;;;;;;;;;5.00;5.00;;;;;;;;3544698;39;114031;-76
2021/08/09 11:50:33;;;;;;;;;8.67;8.67;;;;;;;;3542573;39;113313;-72
2021/08/09 11:53:00;;;;;;;;;4.33;4.00;;;;;;;;3542573;39;115736;-82
2021/08/09 11:55:27;;;;;;;;;5.00;5.00;;;;;;;;3543220;39;112242;-76
2021/08/09 11:57:55;;;;;;;;;6.67;6.67;;;;;;;;3543044;39;113334;-80
2021/08/09 12:00:24;;;;;;;;;5.00;5.00;;;;;;;;3542314;39;114041;-83
2021/08/09 12:03:07;;;;;;;;;6.00;5.33;;;;;;;;3542852;39;112869;-79
2021/08/09 12:05:33;;;;;;;;;6.33;6.33;;;;;;;;3542957;39;115294;-78
2021/08/09 12:08:04;;;;;;;;;7.67;7.67;;;;;;;;3540374;39;113892;-75
2021/08/09 12:10:30;;;;;;;;;7.00;6.00;;;;;;;;3545676;39;111903;-76
2021/08/09 12:13:00;;;;;;;;;5.33;5.33;;;;;;;;3542120;39;113897;-76
2021/08/09 12:15:27;;;;;;;;;8.00;8.00;;;;;;;;3542462;39;111955;-75
2021/08/09 12:18:03;;;;;;;;;11.00;9.00;;;;;;;;3543149;39;113432;-80
2021/08/09 12:20:30;;;;;;;;;9.00;9.00;;;;;;;;3540403;39;114233;-84
2021/08/09 12:22:56;;;;;;;;;5.67;5.00;;;;;;;;3543155;39;112040;-81
2021/08/09 12:25:34;;;;;;;;;7.33;7.33;;;;;;;;3542515;39;113432;-83
2021/08/09 12:28:03;;;;;;;;;8.33;7.67;;;;;;;;3542426;39;114236;-85
2021/08/09 12:30:30;;;;;;;;;11.00;9.00;;;;;;;;3543100;39;111726;-81
2021/08/09 12:33:00;;;;;;;;;10.00;9.33;;;;;;;;3544311;39;112343;-85
2021/08/09 12:35:35;;;;;;;;;10.33;9.00;;;;;;;;3543548;39;111823;-82
2021/08/09 12:38:03;;;;;;;;;10.00;8.33;;;;;;;;3543385;39;112254;-84
2021/08/09 12:40:38;;;;;;;;;5.67;5.67;;;;;;;;3540627;39;114144;-78
2021/08/09 12:43:07;;;;;;;;;7.00;7.00;;;;;;;;3541384;39;113908;-78
2021/08/09 12:45:34;;;;;;;;;6.33;5.33;;;;;;;;3540229;39;112697;-79
2021/08/09 12:48:03;;;;;;;;;5.00;5.00;;;;;;;;3539202;39;113145;-79
2021/08/09 12:50:30;;;;;;;;;4.00;4.00;;;;;;;;3543079;39;111991;-79
2021/08/09 12:52:56;;;;;;;;;8.00;7.00;;;;;;;;3542931;39;113133;-79
2021/08/09 12:55:23;;;;;;;;;6.67;6.67;;;;;;;;3544128;39;112966;-78
2021/08/09 12:57:52;;;;;;;;;5.67;5.33;;;;;;;;3543729;39;113244;-76
2021/08/09 13:00:21;;;;;;;;;6.67;5.67;;;;;;;;3542552;39;113835;-80
2021/08/09 13:02:48;;;;;;;;;7.00;7.00;;;;;;;;3544350;39;111934;-77
2021/08/09 13:05:14;;;;;;;;;7.33;7.00;;;;;;;;3544451;39;113378;-79
2021/08/09 13:07:41;;;;;;;;;8.67;8.67;;;;;;;;3543604;39;114040;-76
2021/08/09 13:10:08;;;;;;;;;7.33;5.00;;;;;;;;3544834;39;111951;-77
2021/08/09 13:12:34;;;;;;;;;6.67;6.67;;;;;;;;3542706;39;113628;-78
2021/08/09 13:15:01;;;;;;;;;10.00;7.00;;;;;;;;3545744;39;114137;-77
2021/08/09 13:17:30;;;;;;;;;8.00;8.00;;;;;;;;3543501;39;113788;-78
2021/08/09 13:19:57;;;;;;;;;8.00;7.67;;;;;;;;3543109;39;113982;-79
2021/08/09 13:22:26;;;;;;;;;8.00;7.33;;;;;;;;3544123;39;111811;-77
2021/08/09 13:24:53;;;;;;;;;7.00;7.00;;;;;;;;3544412;39;113183;-79
2021/08/09 13:27:19;;;;;;;;;8.00;8.00;;;;;;;;3543956;39;113872;-80
2021/08/09 13:29:46;;;;;;;;;9.67;7.67;;;;;;;;3544206;39;112196;-78
2021/08/09 13:32:13;;;;;;;;;6.67;6.33;;;;;;;;3544721;39;113502;-78
2021/08/09 13:34:41;;;;;;;;;7.00;7.00;;;;;;;;3539868;39;114036;-81
2021/08/09 13:37:07;;;;;;;;;6.00;6.00;;;;;;;;3547352;39;111982;-83
2021/08/09 13:39:34;;;;;;;;;7.00;7.00;;;;;;;;3544274;39;114862;-81
2021/08/09 13:42:04;;;;;;;;;9.33;8.00;;;;;;;;3544415;39;111883;-80
2021/08/09 13:44:34;;;;;;;;;7.67;7.00;;;;;;;;3539096;39;113013;-80
2021/08/09 13:47:01;;;;;;;;;10.33;7.33;;;;;;;;3542807;39;114202;-80
2021/08/09 13:49:28;;;;;;;;;10.00;9.00;;;;;;;;3538895;39;112228;-79
2021/08/09 13:51:56;;;;;;;;;8.33;7.00;;;;;;;;3543413;39;113472;-78
2021/08/09 13:54:22;;;;;;;;;9.00;8.00;;;;;;;;3542611;39;113935;-75
2021/08/09 13:56:49;;;;;;;;;9.00;9.00;;;;;;;;3543247;39;111872;-75
2021/08/09 13:59:16;;;;;;;;;8.00;8.00;;;;;;;;3543890;39;113310;-74
2021/08/09 14:01:42;;;;;;;;;9.00;8.67;;;;;;;;3544144;39;111838;-72
2021/08/09 14:04:09;;;;;;;;;9.00;9.00;;;;;;;;3543722;39;113421;-75
2021/08/09 14:06:35;;;;;;;;;9.00;9.00;;;;;;;;3543364;39;113877;-75
2021/08/09 14:09:03;;;;;;;;;11.33;9.00;;;;;;;;3543610;39;112371;-74
2021/08/09 14:11:30;;;;;;;;;7.00;7.00;;;;;;;;3543708;39;113593;-73
2021/08/09 14:13:56;;;;;;;;;9.00;8.00;;;;;;;;3542798;39;114704;-73
2021/08/09 14:16:23;;;;;;;;;8.67;8.33;;;;;;;;3541120;39;111938;-72
2021/08/09 14:18:50;;;;;;;;;7.33;7.33;;;;;;;;3543149;39;113580;-73
2021/08/09 14:21:16;;;;;;;;;9.00;8.00;;;;;;;;3544864;39;113892;-73
2021/08/09 14:23:43;;;;;;;;;7.33;6.00;;;;;;;;3543180;39;113478;-73
2021/08/09 14:26:11;;;;;;;;;7.00;7.00;;;;;;;;3542427;39;114615;-72
2021/08/09 14:28:37;;;;;;;;;6.00;6.00;;;;;;;;3542952;39;112354;-72
2021/08/09 14:31:04;;;;;;;;;9.33;9.33;;;;;;;;3539379;39;116423;-72
2021/08/09 14:33:31;;;;;;;;;9.67;7.00;;;;;;;;3542348;39;113913;-73